Time;durP1;ratioP1;P1;durP2;ratioP2;P2;SDS_P1;SDS_P2;PMS_P1;PMS_P2;Temp;Humidity;BMP_temperature;BMP_pressure;BME280_temperature;BME280_humidity;BME280_pressure;Samples;Min_cycle;Max_cycle;Signal;HPM_P1;HPM_P2
2022/11/02 16:15:12;;;;;;;6.85;2.40;;;;;;;23.09;51.39;99707.88;5175261;27;20470;-58
2022/11/02 16:17:38;;;;;;;5.43;2.17;;;;;;;23.58;49.73;99719.50;5156554;27;20118;-51
2022/11/02 16:20:15;;;;;;;9.50;2.17;;;;;;;24.24;48.06;99716.00;5153723;27;20042;-63
2022/11/02 16:22:57;;;;;;;5.90;2.10;;;;;;;24.67;46.65;99719.81;5158323;27;20047;-70
2022/11/02 16:25:31;;;;;;;3.78;1.67;;;;;;;24.86;45.90;99718.66;5164263;27;20039;-60
2022/11/02 16:28:11;;;;;;;6.80;1.77;;;;;;;24.94;45.34;99709.13;5158786;27;20133;-58
2022/11/02 16:30:36;;;;;;;8.52;1.90;;;;;;;25.00;45.24;99715.91;5160960;27;20441;-59
2022/11/02 16:33:04;;;;;;;3.95;1.35;;;;;;;25.06;44.87;99716.34;5157312;27;20606;-58
2022/11/02 16:35:30;;;;;;;5.32;1.40;;;;;;;25.06;44.52;99714.34;5154318;27;20035;-58
2022/11/02 16:37:56;;;;;;;3.58;1.23;;;;;;;25.10;44.46;99717.19;5146582;27;20043;-66
2022/11/02 16:40:24;;;;;;;3.70;1.40;;;;;;;25.11;44.24;99713.19;5157260;27;20521;-67
2022/11/02 16:42:51;;;;;;;3.40;1.38;;;;;;;25.12;44.01;99709.19;5152752;27;20053;-67
2022/11/02 16:45:38;;;;;;;3.92;1.40;;;;;;;25.09;44.08;99710.78;5135084;27;20047;-65
2022/11/02 16:48:24;;;;;;;4.65;1.63;;;;;;;25.10;43.76;99703.97;5159422;27;20129;-66
2022/11/02 16:51:05;;;;;;;3.88;1.33;;;;;;;25.10;43.64;99703.97;5153598;27;20054;-66
2022/11/02 16:53:33;;;;;;;4.22;1.40;;;;;;;25.12;43.52;99721.16;5148378;27;20038;-64
2022/11/02 16:56:12;;;;;;;6.35;1.70;;;;;;;25.10;43.33;99717.19;5163043;27;20117;-65
2022/11/02 16:58:43;;;;;;;3.63;1.60;;;;;;;25.13;43.32;99722.78;5153545;27;20076;-65
2022/11/02 17:01:18;;;;;;;4.25;1.10;;;;;;;25.10;43.32;99726.38;5165178;27;20038;-67
2022/11/02 17:03:44;;;;;;;5.45;1.33;;;;;;;25.07;43.09;99729.16;5158629;27;20121;-64
2022/11/02 17:06:09;;;;;;;5.60;1.40;;;;;;;25.07;43.22;99731.94;5164224;27;20126;-67
2022/11/02 17:08:38;;;;;;;4.47;1.40;;;;;;;25.02;43.71;99738.72;5163607;27;20117;-61
2022/11/02 17:11:06;;;;;;;5.07;1.52;;;;;;;24.99;43.47;99733.91;5160911;27;20039;-62
2022/11/02 17:13:35;;;;;;;4.82;1.40;;;;;;;25.00;43.35;99738.31;5163945;27;20394;-62
2022/11/02 17:16:04;;;;;;;4.75;1.45;;;;;;;24.97;42.88;99733.50;5166498;27;20095;-66
2022/11/02 17:18:30;;;;;;;5.40;1.40;;;;;;;24.96;43.11;99731.91;5158009;27;20777;-62
2022/11/02 17:21:10;;;;;;;5.18;1.20;;;;;;;24.95;43.14;99739.50;5160466;27;20098;-62
2022/11/02 17:23:36;;;;;;;6.07;1.65;;;;;;;24.86;43.28;99738.25;5156094;27;20557;-66
2022/11/02 17:26:26;;;;;;;6.85;1.45;;;;;;;24.79;43.40;99735.44;5149787;27;20126;-65
2022/11/02 17:28:59;;;;;;;7.45;1.50;;;;;;;24.74;43.36;99747.03;5140690;27;20050;-62
2022/11/02 17:31:34;;;;;;;2.17;1.10;;;;;;;24.68;43.57;99746.59;5152725;27;20855;-66
2022/11/02 17:34:07;;;;;;;2.78;1.20;;;;;;;24.63;43.76;99752.56;5151964;27;20054;-62
2022/11/02 17:36:41;;;;;;;4.15;1.23;;;;;;;24.58;43.75;99756.56;5152872;27;20049;-62
2022/11/02 17:39:19;;;;;;;2.20;1.00;;;;;;;24.53;44.01;99759.72;5142129;27;20059;-62
2022/11/02 17:44:34;;;;;;;3.70;1.17;;;;;;;24.47;44.00;99758.47;5152353;27;20376;-62
2022/11/02 17:47:00;;;;;;;3.00;1.10;;;;;;;24.45;44.23;99763.66;5152025;27;20038;-62
2022/11/02 17:49:25;;;;;;;4.82;1.50;;;;;;;24.41;44.34;99768.44;5143710;27;20503;-65
2022/11/02 17:51:51;;;;;;;1.88;0.90;;;;;;;24.40;44.14;99767.63;5144747;27;20044;-65
2022/11/02 17:54:17;;;;;;;2.97;1.10;;;;;;;24.37;44.36;99762.03;5151841;27;20094;-65
2022/11/02 17:56:42;;;;;;;1.30;0.80;;;;;;;24.35;44.13;99765.19;5133494;27;20046;-62
2022/11/02 17:59:08;;;;;;;3.08;0.98;;;;;;;24.36;44.13;99760.41;5149941;27;20936;-66
2022/11/02 18:01:33;;;;;;;1.73;0.90;;;;;;;24.34;44.22;99765.59;5142832;27;20042;-62
2022/11/02 18:03:59;;;;;;;2.60;1.00;;;;;;;24.33;44.36;99766.78;5151599;27;20064;-65
2022/11/02 18:06:24;;;;;;;1.48;0.90;;;;;;;24.31;44.42;99764.34;5139717;27;20041;-65
2022/11/02 18:11:33;;;;;;;2.70;1.27;;;;;;;24.30;44.35;99764.75;5139057;27;20366;-65
2022/11/02 18:13:59;;;;;;;1.90;1.00;;;;;;;24.29;44.30;99768.72;5150412;27;20042;-63
2022/11/02 18:16:24;;;;;;;1.90;0.90;;;;;;;24.29;44.38;99765.91;5151584;27;20061;-62
2022/11/02 18:18:50;;;;;;;1.23;0.77;;;;;;;24.26;44.19;99764.72;5150875;27;20125;-66
2022/11/02 18:21:15;;;;;;;3.03;0.90;;;;;;;24.25;44.34;99763.13;5151992;27;20394;-66
2022/11/02 18:23:40;;;;;;;2.00;0.90;;;;;;;24.25;44.25;99762.31;5152127;27;20095;-65
2022/11/02 18:26:09;;;;;;;1.58;0.80;;;;;;;24.27;44.40;99768.31;5139918;27;20043;-62
2022/11/02 18:28:35;;;;;;;1.92;0.90;;;;;;;24.24;44.34;99766.31;5138393;27;20043;-62
2022/11/02 18:31:00;;;;;;;1.83;0.90;;;;;;;24.24;44.44;99774.69;5145785;27;20467;-62
2022/11/02 18:33:26;;;;;;;1.15;0.70;;;;;;;24.20;44.21;99762.69;5148529;27;20055;-66
2022/11/02 18:35:51;;;;;;;1.40;0.70;;;;;;;24.23;44.32;99765.50;5151530;27;20035;-66
2022/11/02 18:38:17;;;;;;;1.15;0.70;;;;;;;24.21;44.11;99755.88;5143100;27;20407;-66
2022/11/02 18:40:42;;;;;;;1.40;0.82;;;;;;;24.20;44.13;99760.69;5151687;27;20031;-65
2022/11/02 18:43:08;;;;;;;1.40;0.80;;;;;;;24.19;44.38;99752.69;5144492;27;20188;-62
2022/11/02 18:45:33;;;;;;;1.20;0.73;;;;;;;24.20;44.32;99760.69;5134096;27;20047;-62
2022/11/02 18:47:59;;;;;;;1.15;0.80;;;;;;;24.19;44.24;99759.09;5144509;27;20031;-62
2022/11/02 18:50:24;;;;;;;1.63;0.90;;;;;;;24.19;44.42;99752.69;5151107;27;20126;-66
2022/11/02 18:52:50;;;;;;;1.23;0.60;;;;;;;24.17;44.23;99756.69;5151017;27;20070;-63
2022/11/02 18:55:15;;;;;;;1.38;0.70;;;;;;;24.16;44.11;99755.09;5151040;27;20053;-67
2022/11/02 18:57:43;;;;;;;0.80;0.60;;;;;;;24.19;44.26;99759.09;5151510;27;20039;-66
2022/11/02 19:00:11;;;;;;;2.13;0.80;;;;;;;24.16;44.30;99760.69;5138368;27;20547;-62
2022/11/02 19:02:37;;;;;;;1.20;0.68;;;;;;;24.15;44.28;99752.69;5149853;27;20059;-62
2022/11/02 19:05:02;;;;;;;1.48;0.80;;;;;;;24.17;44.33;99756.69;5147850;27;20054;-65
2022/11/02 19:10:11;;;;;;;1.27;0.70;;;;;;;24.16;44.06;99755.09;5145505;27;20567;-66
2022/11/02 19:12:37;;;;;;;1.00;0.80;;;;;;;24.13;44.04;99753.06;5149689;27;20050;-65
2022/11/02 19:15:03;;;;;;;1.35;0.75;;;;;;;24.14;44.07;99757.44;5149771;27;20076;-65
2022/11/02 19:17:29;;;;;;;0.85;0.65;;;;;;;24.14;43.99;99759.44;5150731;27;20422;-63
2022/11/02 19:19:55;;;;;;;1.20;0.70;;;;;;;24.13;44.14;99755.03;5151052;27;20446;-62
2022/11/02 19:22:22;;;;;;;0.90;0.70;;;;;;;24.11;44.01;99757.44;5150768;27;20091;-66
2022/11/02 19:24:48;;;;;;;1.02;0.63;;;;;;;24.12;43.99;99768.22;5150121;27;20316;-66
2022/11/02 19:27:16;;;;;;;1.33;0.80;;;;;;;24.13;44.00;99766.22;5145880;27;20598;-66
2022/11/02 19:29:41;;;;;;;1.40;0.80;;;;;;;24.12;44.00;99764.63;5135927;27;20392;-62
2022/11/02 19:32:07;;;;;;;0.95;0.65;;;;;;;24.13;44.13;99766.22;5146248;27;20047;-63
2022/11/02 19:34:33;;;;;;;0.95;0.68;;;;;;;24.10;44.05;99759.44;5151457;27;20034;-63
2022/11/02 19:36:59;;;;;;;1.30;0.85;;;;;;;24.11;44.15;99757.44;5146883;27;20074;-63
2022/11/02 19:39:25;;;;;;;0.93;0.60;;;;;;;24.08;44.15;99747.84;5151426;27;20035;-65
2022/11/02 19:41:51;;;;;;;0.75;0.60;;;;;;;24.11;44.09;99752.66;5140647;27;20471;-63
2022/11/02 19:44:17;;;;;;;1.15;0.75;;;;;;;24.12;43.79;99743.06;5149689;27;20522;-62
2022/11/02 19:46:42;;;;;;;0.93;0.70;;;;;;;24.10;44.01;99744.66;5147722;27;20077;-66
2022/11/02 19:49:07;;;;;;;1.77;0.63;;;;;;;24.12;43.85;99740.28;5150614;27;20039;-65
2022/11/02 19:51:33;;;;;;;1.40;0.80;;;;;;;24.10;44.01;99745.47;5150516;27;20062;-63
2022/11/02 19:54:00;;;;;;;1.00;0.70;;;;;;;24.07;43.76;99746.22;5140245;27;20053;-67
2022/11/02 19:56:28;;;;;;;0.82;0.70;;;;;;;24.08;43.95;99747.03;5140066;27;20035;-62
2022/11/02 19:58:54;;;;;;;2.08;0.77;;;;;;;24.07;43.95;99740.63;5147920;27;20525;-63
2022/11/02 20:01:22;;;;;;;1.70;0.73;;;;;;;24.09;43.79;99746.66;5141795;27;20043;-66
2022/11/02 20:03:48;;;;;;;1.88;0.70;;;;;;;24.05;43.89;99743.03;5150122;27;20065;-67
2022/11/02 20:06:25;;;;;;;1.17;0.57;;;;;;;24.07;43.74;99745.41;5151098;27;20046;-62
2022/11/02 20:08:56;;;;;;;1.48;0.77;;;;;;;24.08;43.62;99752.63;5144558;27;20043;-65
2022/11/02 20:11:23;;;;;;;1.35;0.80;;;;;;;24.07;43.88;99737.84;5150503;27;20508;-62
2022/11/02 20:13:49;;;;;;;1.00;0.60;;;;;;;24.05;44.11;99743.03;5149956;27;20086;-65
2022/11/02 20:16:17;;;;;;;1.00;0.70;;;;;;;24.03;43.55;99745.41;5140366;27;20050;-62
2022/11/02 20:18:44;;;;;;;1.00;0.70;;;;;;;24.03;43.83;99739.81;5149240;27;20047;-62
2022/11/02 20:21:19;;;;;;;0.88;0.60;;;;;;;24.02;43.82;99743.81;5149688;27;20043;-65
2022/11/02 20:23:45;;;;;;;1.13;0.63;;;;;;;23.98;43.71;99740.19;5139920;27;20035;-66
2022/11/02 20:26:14;;;;;;;1.20;0.70;;;;;;;24.03;43.54;99747.41;5150250;27;20099;-66
2022/11/02 20:28:46;;;;;;;1.63;0.60;;;;;;;24.08;43.83;99747.84;5147990;27;20042;-66
2022/11/02 20:31:15;;;;;;;1.00;0.60;;;;;;;24.20;43.44;99743.13;5150521;27;20074;-65
2022/11/02 20:33:41;;;;;;;3.08;0.73;;;;;;;24.28;43.11;99741.97;5146330;27;20134;-63
2022/11/02 20:36:07;;;;;;;1.05;0.70;;;;;;;24.24;42.93;99741.94;5147957;27;20467;-66
2022/11/02 20:38:35;;;;;;;1.27;0.80;;;;;;;24.22;43.40;99746.31;5149423;27;20103;-66
2022/11/02 20:41:15;;;;;;;1.13;0.65;;;;;;;24.16;43.27;99745.91;5150145;27;20035;-66
2022/11/02 20:43:44;;;;;;;1.10;0.63;;;;;;;24.15;43.34;99742.31;5136286;27;20423;-67
2022/11/02 20:46:15;;;;;;;1.00;0.70;;;;;;;24.12;43.49;99754.25;5145821;27;20093;-63
2022/11/02 20:48:42;;;;;;;1.15;0.75;;;;;;;24.11;43.55;99752.66;5149644;27;20078;-66
2022/11/02 20:51:08;;;;;;;0.90;0.70;;;;;;;24.09;43.57;99746.66;5131736;27;20070;-66
2022/11/02 20:53:34;;;;;;;1.35;0.80;;;;;;;24.05;43.58;99737.44;5150100;27;20042;-66
2022/11/02 20:56:00;;;;;;;1.08;0.73;;;;;;;24.04;43.77;99732.22;5149612;27;20057;-63
2022/11/02 20:58:26;;;;;;;1.58;0.77;;;;;;;24.04;43.38;99733.03;5149914;27;20045;-66
2022/11/02 21:00:52;;;;;;;0.93;0.60;;;;;;;24.01;43.56;99736.63;5151627;27;20047;-62
2022/11/02 21:03:17;;;;;;;1.20;0.80;;;;;;;24.04;43.58;99735.03;5153663;27;20035;-62
2022/11/02 21:05:43;;;;;;;1.08;0.70;;;;;;;24.03;43.58;99733.44;5153120;27;20038;-62
2022/11/02 21:08:09;;;;;;;1.40;0.80;;;;;;;24.04;43.55;99733.03;5153515;27;20130;-62
2022/11/02 21:10:35;;;;;;;1.15;0.73;;;;;;;24.02;43.40;99738.22;5153513;27;20043;-65
2022/11/02 21:15:44;;;;;;;0.95;0.60;;;;;;;23.98;43.22;99731.78;5143760;27;20054;-66
2022/11/02 21:18:09;;;;;;;1.67;0.80;;;;;;;23.98;43.64;99719.81;5152510;27;20047;-66
2022/11/02 21:20:35;;;;;;;0.60;0.50;;;;;;;23.99;43.49;99725.00;5153642;27;20038;-66
2022/11/02 21:23:02;;;;;;;1.15;0.70;;;;;;;24.00;43.20;99718.22;5149935;27;20035;-62
2022/11/02 21:25:28;;;;;;;0.90;0.60;;;;;;;24.00;43.45;99723.81;5138145;27;20216;-67
2022/11/02 21:27:54;;;;;;;0.98;0.70;;;;;;;23.99;43.41;99724.22;5152801;27;20047;-66
2022/11/02 21:30:20;;;;;;;1.08;0.75;;;;;;;23.99;43.55;99722.22;5152685;27;20183;-63
2022/11/02 21:32:45;;;;;;;1.20;0.70;;;;;;;23.99;43.49;99724.22;5146792;27;20118;-62
2022/11/02 21:35:10;;;;;;;1.08;0.70;;;;;;;23.98;43.27;99720.63;5149725;27;20414;-62
2022/11/02 21:37:36;;;;;;;0.85;0.63;;;;;;;23.97;43.35;99719.00;5152900;27;20087;-62
2022/11/02 21:40:04;;;;;;;1.00;0.70;;;;;;;23.99;43.43;99732.59;5152345;27;20422;-62
2022/11/02 21:42:30;;;;;;;1.35;0.90;;;;;;;23.98;43.36;99726.19;5145068;27;20034;-62
2022/11/02 21:44:55;;;;;;;0.90;0.70;;;;;;;23.96;43.45;99725.00;5150560;27;20043;-62
2022/11/02 21:47:20;;;;;;;0.90;0.60;;;;;;;23.96;43.36;99725.81;5148859;27;20035;-63
2022/11/02 21:49:46;;;;;;;0.82;0.60;;;;;;;23.98;43.29;99728.19;5148975;27;20054;-66
2022/11/02 21:52:11;;;;;;;1.25;0.90;;;;;;;23.95;43.21;99732.59;5149886;27;20031;-66
2022/11/02 21:54:37;;;;;;;0.88;0.60;;;;;;;23.97;43.00;99730.19;5144304;27;20069;-66
2022/11/02 21:57:02;;;;;;;1.30;0.73;;;;;;;23.96;43.12;99728.59;5132945;27;20042;-66
2022/11/02 21:59:30;;;;;;;0.80;0.60;;;;;;;23.94;43.38;99722.59;5151668;27;20061;-63
2022/11/02 22:01:58;;;;;;;1.10;0.77;;;;;;;23.94;43.44;99722.59;5152172;27;20038;-63
2022/11/02 22:04:27;;;;;;;0.90;0.70;;;;;;;23.94;43.33;99730.97;5148464;27;20038;-66
2022/11/02 22:06:54;;;;;;;1.48;0.85;;;;;;;23.95;43.25;99731.78;5148783;27;20498;-66
2022/11/02 22:09:20;;;;;;;0.82;0.70;;;;;;;23.92;43.28;99733.34;5152342;27;20049;-66
2022/11/02 22:11:46;;;;;;;1.48;0.82;;;;;;;23.94;43.08;99736.56;5144296;27;20054;-63
2022/11/02 22:14:12;;;;;;;1.08;0.60;;;;;;;23.92;43.33;99727.75;5150059;27;20043;-62
2022/11/02 22:16:40;;;;;;;1.20;0.80;;;;;;;23.93;43.17;99731.34;5152078;27;20038;-62
2022/11/02 22:19:08;;;;;;;1.08;0.70;;;;;;;23.89;43.09;99723.75;5151773;27;20046;-65
2022/11/02 22:21:44;;;;;;;1.52;0.90;;;;;;;23.91;43.28;99730.94;5149719;27;20038;-65
2022/11/02 22:24:10;;;;;;;1.10;0.70;;;;;;;23.92;42.98;99721.38;5152497;27;20047;-62
2022/11/02 22:26:36;;;;;;;0.98;0.80;;;;;;;23.91;43.13;99728.94;5148880;27;20050;-66
2022/11/02 22:29:03;;;;;;;1.00;0.80;;;;;;;23.92;42.97;99732.53;5152410;27;20066;-62
2022/11/02 22:31:30;;;;;;;1.25;0.85;;;;;;;23.91;43.03;99730.94;5151368;27;20066;-66
2022/11/02 22:33:58;;;;;;;1.13;0.75;;;;;;;23.90;43.07;99724.56;5152526;27;20086;-62
2022/11/02 22:36:25;;;;;;;1.30;0.80;;;;;;;23.90;43.02;99721.75;5151829;27;20043;-62
2022/11/02 22:38:53;;;;;;;1.30;0.90;;;;;;;23.87;42.93;99719.75;5151695;27;20043;-62
2022/11/02 22:41:24;;;;;;;1.00;0.70;;;;;;;23.90;43.00;99710.59;5150077;27;20038;-65
2022/11/02 22:43:55;;;;;;;1.45;0.80;;;;;;;23.88;42.96;99715.78;5150677;27;20035;-61
2022/11/02 22:46:22;;;;;;;1.05;0.80;;;;;;;23.91;43.03;99712.19;5151577;27;20537;-62
2022/11/02 22:48:53;;;;;;;1.08;0.80;;;;;;;23.89;42.87;99712.59;5148347;27;20043;-62
2022/11/02 22:51:20;;;;;;;1.00;0.70;;;;;;;23.90;43.02;99716.19;5147177;27;20074;-65
2022/11/02 22:53:46;;;;;;;0.98;0.80;;;;;;;23.88;42.81;99710.19;5145660;27;20145;-62
2022/11/02 22:56:13;;;;;;;0.88;0.75;;;;;;;23.89;42.94;99709.78;5151228;27;20074;-65
2022/11/02 22:58:44;;;;;;;1.02;0.70;;;;;;;23.89;42.95;99711.78;5151079;27;20046;-65
2022/11/02 23:01:15;;;;;;;1.25;0.80;;;;;;;23.88;42.83;99713.78;5151446;27;20509;-62
2022/11/02 23:03:41;;;;;;;1.35;0.70;;;;;;;23.89;42.67;99701.41;5150616;27;20058;-62
2022/11/02 23:06:07;;;;;;;0.82;0.60;;;;;;;23.88;42.78;99699.81;5150795;27;20526;-66
2022/11/02 23:08:34;;;;;;;1.05;0.70;;;;;;;23.86;42.84;99693.00;5151403;27;20103;-63
2022/11/02 23:13:45;;;;;;;1.02;0.70;;;;;;;23.88;42.79;99696.22;5150758;27;20066;-65
2022/11/02 23:16:20;;;;;;;1.20;0.70;;;;;;;23.87;42.66;99697.41;5150792;27;20084;-65
2022/11/02 23:25:23;;;;;;;1.30;0.70;;;;;;;24.12;41.98;99691.97;5062450;28;20036;-62
2022/11/02 23:33:23;;;;;;;1.20;0.80;;;;;;;24.04;42.13;99684.72;5061217;28;20144;-63
2022/11/02 23:41:17;;;;;;;1.17;0.80;;;;;;;23.95;42.09;99684.28;5055360;28;20449;-62
2022/11/02 23:43:43;;;;;;;0.98;0.68;;;;;;;23.92;42.23;99677.47;5063674;28;20051;-62
2022/11/02 23:46:09;;;;;;;1.65;0.70;;;;;;;23.90;42.31;99677.06;5067060;28;20041;-62
2022/11/02 23:48:34;;;;;;;1.52;0.93;;;;;;;23.91;42.29;99675.88;5065799;28;20128;-62
2022/11/02 23:56:43;;;;;;;1.65;0.93;;;;;;;23.89;42.34;99673.47;5066299;28;20052;-63
2022/11/02 23:59:09;;;;;;;2.80;0.80;;;;;;;23.87;42.32;99670.28;5107914;27;20072;-63
